Grinnell, Iowa
Current Conditions -  °F | °C
As of 7:35 AM on Saturday 25 Oct 2014 (Local Time) from KGGI Reporting Station
Clear Clear  
Wind Chill: 48°   Ceiling: Unl
Heat Index: 49°   Visibility: 10mi
Dew Point: 44°   Wind: 5mph
Humidity: 81%   Direction: 310°NW
Pressure: 30.03"   Gusts: NA
Location:  41.75°N, 92.73°W
Report Text: KGGI 251235Z AUTO 31004KT 10SM CLR 10/07 A3003 RMK AO2 T00970065
Loading
Personal Weather Stations






























Interactive Weather Map
Tropical Storm Tracking
New forecast layout! Learn more

10-Day Weather Forecast

Advertisements
Track Severe Weather on mobile